• Join FlightAware (Why Join?)
  • Login
  • US Flag 
05:23AM EST


 

Airport Tracker/Info


-or-


 

Live Flight TrackerFlight Track Log ✈ N888FM ✈ 26-Oct-2013 ✈ KAVP - KITH

Flight Track Log - Related Links

Times and Time Zones

All times are in EDT time to prevent confusion due to time zone crossing. See the N888FM flight status page for this flight to view local times or setup timezone preferences in your user account.

Time Position Orientation Groundspeed Altitude Reporting Facility
EDT Latitude Longitude Course Direction KTS MPH feet Rate Location/Type
09:23AM 41.7161 -75.9610 340° North  Level Estimated
09:24AM 41.7736 -75.9824 345° North  Level FlightAware Approximate
09:25AM 41.8311 -76.0037 345° North  Level FlightAware Approximate
09:26AM 41.8843 -76.0399 323° Northwest  Level Estimated
09:27AM 41.9374 -76.0763 324° Northwest  Level Estimated
09:28AM 41.9921 -76.1083 336° Northwest  Level FlightAware Approximate
09:29AM 42.0467 -76.1404 336° Northwest  Level FlightAware Approximate
09:30AM 42.0995 -76.1779 324° Northwest  Level Estimated
09:31AM 42.1522 -76.2155 324° Northwest  Level Estimated
09:32AM 42.2047 -76.2537 332° Northwest  Level FlightAware Approximate
09:33AM 42.2574 -76.2913 340° North  Level Estimated
09:34AM 42.3102 -76.3289 340° North  Level Estimated
09:35AM 42.3629 -76.3666 340° North  Level Estimated
09:36AM 42.4156 -76.4044 340° North  Level Estimated
09:37AM 42.4683 -76.4422 340° North  Level Estimated
09:38AM 42.4833 -76.4500 340° North  Level FlightAware Approximate
09:39AM 42.4914 -76.4587 340° North  Level Estimated
09:40AM 42.4914 -76.4587 340° North  Level Estimated
09:41AM 42.4914 -76.4587 340° North  Level Estimated
09:42AM 42.4914 -76.4587 340° North  Level Estimated
09:43AM 42.4914 -76.4587 340° North  Level Estimated
09:44AM 42.4914 -76.4587 340° North  Level Estimated
09:45AM 42.4914 -76.4587 340° North  Level Estimated
09:46AM 42.4914 -76.4587 340° North  Level Estimated